createdAt,value
2019-03-15T00:02:02.109Z,2.37
2019-03-15T00:04:40.067Z,2.33
2019-03-15T00:07:10.089Z,2.25
2019-03-15T00:09:39.962Z,2.30
2019-03-15T00:12:10.202Z,2.26
2019-03-15T00:14:40.478Z,2.27
2019-03-15T00:17:10.805Z,2.23
2019-03-15T00:19:41.083Z,2.24
2019-03-15T00:22:11.507Z,2.22
2019-03-15T00:24:41.347Z,2.22
2019-03-15T00:27:11.731Z,2.18
2019-03-15T00:29:42.038Z,2.16
2019-03-15T00:32:14.203Z,2.15
2019-03-15T00:34:44.561Z,2.11
2019-03-15T00:37:14.927Z,2.01
2019-03-15T00:39:45.283Z,1.97
2019-03-15T00:42:15.968Z,1.88
2019-03-15T00:44:46.311Z,1.92
2019-03-15T00:47:17.394Z,1.82
2019-03-15T00:49:47.930Z,1.82
2019-03-15T00:52:18.555Z,1.78
2019-03-15T00:54:48.253Z,1.70
2019-03-15T00:57:18.373Z,1.77
2019-03-15T00:59:48.690Z,1.72
2019-03-15T01:02:18.954Z,1.71
2019-03-15T01:04:49.294Z,1.70
2019-03-15T01:07:19.717Z,1.71
2019-03-15T01:09:50.043Z,1.72
2019-03-15T01:12:20.348Z,1.64
2019-03-15T01:14:50.780Z,1.67
2019-03-15T01:17:21.458Z,1.83
2019-03-15T01:19:51.761Z,1.77
2019-03-15T01:22:24.219Z,1.71
2019-03-15T01:24:54.483Z,1.69
2019-03-15T01:27:24.878Z,1.65
2019-03-15T01:29:55.213Z,1.51
2019-03-15T01:32:25.478Z,1.44
2019-03-15T01:34:55.807Z,1.42
2019-03-15T01:37:26.071Z,1.39
2019-03-15T01:39:56.345Z,1.41
2019-03-15T01:42:26.674Z,1.53
2019-03-15T01:44:57.020Z,1.52
2019-03-15T01:47:27.339Z,1.60
2019-03-15T01:49:58.601Z,1.58
2019-03-15T01:52:29.051Z,1.65
2019-03-15T01:54:59.422Z,1.66
2019-03-15T01:57:29.924Z,1.67
2019-03-15T01:59:59.660Z,1.72
2019-03-15T02:02:29.796Z,1.73
2019-03-15T02:05:00.061Z,1.82
2019-03-15T02:07:30.351Z,1.82
2019-03-15T02:10:00.710Z,1.80
2019-03-15T02:12:31.043Z,1.79
2019-03-15T02:15:01.430Z,1.73
2019-03-15T02:17:31.882Z,1.85
2019-03-15T02:20:03.277Z,1.94
2019-03-15T02:22:33.715Z,1.82
2019-03-15T02:25:03.414Z,1.88
2019-03-15T02:27:33.638Z,1.84
2019-03-15T02:30:06.052Z,1.77
2019-03-15T02:32:36.415Z,1.67
2019-03-15T02:35:06.227Z,1.58
2019-03-15T02:37:36.516Z,1.57
2019-03-15T02:40:07.067Z,1.44
2019-03-15T02:42:36.678Z,1.41
2019-03-15T02:45:06.810Z,1.34
2019-03-15T02:47:37.131Z,1.37
2019-03-15T02:50:08.379Z,1.36
2019-03-15T02:52:38.869Z,1.36
2019-03-15T02:55:09.415Z,1.28
2019-03-15T02:57:39.263Z,1.17
2019-03-15T03:00:09.908Z,1.19
2019-03-15T03:02:39.559Z,1.18
2019-03-15T03:05:10.366Z,1.23
2019-03-15T03:07:40.679Z,1.25
2019-03-15T03:10:11.029Z,1.22
2019-03-15T03:12:41.430Z,1.23
2019-03-15T03:15:11.905Z,1.28
2019-03-15T03:17:42.226Z,1.26
2019-03-15T03:20:13.517Z,1.29
2019-03-15T03:22:43.926Z,1.26
2019-03-15T03:25:14.607Z,1.31
2019-03-15T03:27:44.624Z,1.21
2019-03-15T03:30:16.883Z,1.14
2019-03-15T03:32:47.255Z,1.09
2019-03-15T03:35:17.581Z,1.04
2019-03-15T03:37:48.005Z,1.04
2019-03-15T03:40:20.430Z,1.01
2019-03-15T03:42:50.426Z,0.95
2019-03-15T03:45:23.227Z,1.03
2019-03-15T03:47:52.771Z,1.04
2019-03-15T03:50:23.162Z,0.98
2019-03-15T03:52:53.548Z,1.03
2019-03-15T03:55:23.911Z,1.09
2019-03-15T03:57:54.268Z,1.13
2019-03-15T04:00:24.557Z,1.01
2019-03-15T04:02:54.894Z,1.00
2019-03-15T04:05:25.257Z,0.93
2019-03-15T04:07:55.709Z,0.92
2019-03-15T04:10:26.188Z,0.98
2019-03-15T04:12:56.662Z,0.84
2019-03-15T04:15:27.001Z,0.81
2019-03-15T04:17:57.431Z,0.86
2019-03-15T04:20:28.263Z,0.87
2019-03-15T04:22:58.383Z,0.91
2019-03-15T04:25:28.974Z,0.96
2019-03-15T04:27:59.537Z,0.96
2019-03-15T04:30:29.796Z,0.94
2019-03-15T04:33:00.126Z,0.97
2019-03-15T04:35:30.502Z,1.08
2019-03-15T04:38:00.813Z,1.25
2019-03-15T04:40:31.114Z,1.27
2019-03-15T04:43:01.383Z,1.43
2019-03-15T04:45:31.708Z,1.58
2019-03-15T04:48:02.178Z,1.60
2019-03-15T04:50:31.995Z,1.67
2019-03-15T04:53:02.094Z,1.75
2019-03-15T04:55:32.462Z,1.80
2019-03-15T04:58:02.788Z,1.83
2019-03-15T05:00:33.104Z,1.82
2019-03-15T05:03:03.434Z,1.92
2019-03-15T05:05:33.837Z,1.95
2019-03-15T05:08:04.153Z,2.02
2019-03-15T05:10:34.452Z,2.11
2019-03-15T05:13:04.909Z,2.13
2019-03-15T05:15:36.948Z,2.15
2019-03-15T05:18:07.262Z,2.19
2019-03-15T05:20:38.516Z,2.24
2019-03-15T05:23:08.931Z,2.38
2019-03-15T05:25:39.685Z,2.58
2019-03-15T05:28:10.080Z,2.88
2019-03-15T05:30:40.479Z,3.05
2019-03-15T05:33:10.810Z,3.31
2019-03-15T05:35:41.125Z,3.49
2019-03-15T05:38:11.444Z,3.48
2019-03-15T05:40:41.801Z,3.42
2019-03-15T05:43:12.191Z,3.22
2019-03-15T05:45:42.514Z,3.20
2019-03-15T05:48:12.893Z,3.13
2019-03-15T05:50:43.353Z,3.30
2019-03-15T05:53:13.657Z,3.30
2019-03-15T05:55:44.042Z,3.45
2019-03-15T05:58:14.467Z,3.70
2019-03-15T06:00:44.373Z,3.77
2019-03-15T06:03:14.496Z,3.70
2019-03-15T06:05:44.879Z,3.77
2019-03-15T06:08:15.356Z,4.09
2019-03-15T06:10:45.213Z,4.00
2019-03-15T06:13:15.702Z,4.38
2019-03-15T06:15:45.790Z,4.27
2019-03-15T06:18:15.973Z,4.26
2019-03-15T06:20:47.267Z,4.34
2019-03-15T06:23:17.846Z,4.63
2019-03-15T06:25:48.385Z,4.86
2019-03-15T06:28:18.783Z,4.95
2019-03-15T06:30:48.787Z,4.65
2019-03-15T06:33:19.312Z,4.48
2019-03-15T06:35:49.773Z,4.69
2019-03-15T06:38:20.201Z,4.45
2019-03-15T06:40:50.521Z,4.44
2019-03-15T06:43:20.850Z,4.37
2019-03-15T06:45:51.185Z,4.47
2019-03-15T06:48:21.443Z,4.59
2019-03-15T06:50:51.783Z,4.59
2019-03-15T06:53:22.055Z,4.59
2019-03-15T06:55:52.395Z,4.41
2019-03-15T06:58:22.867Z,4.37
2019-03-15T07:00:54.779Z,4.15
2019-03-15T07:03:25.314Z,4.30
2019-03-15T07:05:55.684Z,4.48
2019-03-15T07:08:26.031Z,4.61
2019-03-15T07:10:56.432Z,4.65
2019-03-15T07:13:26.723Z,4.91
2019-03-15T07:15:57.054Z,5.14
2019-03-15T07:18:27.459Z,5.40
2019-03-15T07:20:58.246Z,5.66
2019-03-15T07:23:31.425Z,5.59
2019-03-15T07:26:02.178Z,5.73
2019-03-15T07:28:32.000Z,5.48
2019-03-15T07:31:02.291Z,5.18
2019-03-15T07:33:32.310Z,4.92
2019-03-15T07:36:02.739Z,4.98
2019-03-15T07:38:32.687Z,4.99
2019-03-15T07:41:02.908Z,5.00
2019-03-15T07:43:33.218Z,5.19
2019-03-15T07:46:03.709Z,5.17
2019-03-15T07:48:34.364Z,5.46
2019-03-15T07:51:04.317Z,5.85
2019-03-15T07:53:37.729Z,5.96
2019-03-15T07:56:08.200Z,5.95
2019-03-15T07:58:38.706Z,6.03
2019-03-15T08:01:09.299Z,6.15
2019-03-15T08:03:40.005Z,6.14
2019-03-15T08:06:10.487Z,6.22
2019-03-15T08:08:41.430Z,6.28
2019-03-15T08:11:12.214Z,6.00
2019-03-15T08:13:42.819Z,5.83
2019-03-15T08:16:13.208Z,5.74
2019-03-15T08:18:43.521Z,5.76
2019-03-15T08:21:14.857Z,5.54
2019-03-15T08:23:45.183Z,5.54
2019-03-15T08:26:15.656Z,5.37
2019-03-15T08:28:45.971Z,5.38
2019-03-15T08:31:16.305Z,5.39
2019-03-15T08:33:46.631Z,5.27
2019-03-15T08:36:20.166Z,5.32
2019-03-15T08:38:49.009Z,5.39
2019-03-15T08:41:19.378Z,5.37
2019-03-15T08:43:49.758Z,5.29
2019-03-15T08:46:20.061Z,5.24
2019-03-15T08:48:50.461Z,5.26
2019-03-15T08:51:20.741Z,5.26
2019-03-15T08:53:51.067Z,5.34
2019-03-15T08:56:21.675Z,5.28
2019-03-15T08:58:52.128Z,5.37
2019-03-15T09:01:23.891Z,5.40
2019-03-15T09:03:55.106Z,5.61
2019-03-15T09:06:25.506Z,5.62
2019-03-15T09:08:55.822Z,5.72
2019-03-15T09:11:26.187Z,5.72
2019-03-15T09:13:56.547Z,5.66
2019-03-15T09:16:26.871Z,5.72
2019-03-15T09:18:57.193Z,5.60
2019-03-15T09:21:28.439Z,5.49
2019-03-15T09:23:58.777Z,5.56
2019-03-15T09:26:28.719Z,5.70
2019-03-15T09:28:58.827Z,5.79
2019-03-15T09:31:33.636Z,5.71
2019-03-15T09:34:01.125Z,5.80
2019-03-15T09:36:33.910Z,5.83
2019-03-15T09:39:04.217Z,5.88
2019-03-15T09:41:39.727Z,5.84
2019-03-15T09:44:06.645Z,5.56
2019-03-15T09:46:37.007Z,5.53
2019-03-15T09:49:07.882Z,5.74
2019-03-15T09:51:38.641Z,5.92
2019-03-15T09:54:09.291Z,6.00
2019-03-15T09:56:40.149Z,5.87
2019-03-15T09:59:10.780Z,5.82
2019-03-15T10:01:41.550Z,5.86
2019-03-15T10:04:12.201Z,5.83
2019-03-15T10:06:43.089Z,5.86
2019-03-15T10:09:13.896Z,5.95
2019-03-15T10:11:44.650Z,6.09
2019-03-15T10:14:15.322Z,5.82
2019-03-15T10:16:46.175Z,6.05
2019-03-15T10:19:16.913Z,6.23
2019-03-15T10:21:48.709Z,6.30
2019-03-15T10:24:19.460Z,6.14
2019-03-15T10:26:50.317Z,6.19
2019-03-15T10:29:21.065Z,6.10
2019-03-15T10:31:52.029Z,6.06
2019-03-15T10:34:22.679Z,5.91
2019-03-15T10:36:53.433Z,5.96
2019-03-15T10:39:24.292Z,6.07
2019-03-15T10:41:55.027Z,5.95
2019-03-15T10:44:25.677Z,6.08
2019-03-15T10:46:56.551Z,5.94
2019-03-15T10:49:30.606Z,5.91
2019-03-15T10:51:59.390Z,5.95
2019-03-15T10:54:29.449Z,6.07
2019-03-15T10:56:59.976Z,6.22
2019-03-15T10:59:30.728Z,6.12
2019-03-15T11:02:02.916Z,6.14
2019-03-15T11:04:33.770Z,6.00
2019-03-15T11:07:04.523Z,5.95
2019-03-15T11:09:35.259Z,6.08
2019-03-15T11:12:06.191Z,6.32
2019-03-15T11:14:36.990Z,6.42
2019-03-15T11:17:07.846Z,6.55
2019-03-15T11:19:38.702Z,6.75
2019-03-15T11:22:10.481Z,6.84
2019-03-15T11:24:43.759Z,6.80
2019-03-15T11:27:13.726Z,6.61
2019-03-15T11:29:44.462Z,6.65
2019-03-15T11:32:15.233Z,6.61
2019-03-15T11:34:45.885Z,6.75
2019-03-15T11:37:16.745Z,6.69
2019-03-15T11:39:47.476Z,6.61
2019-03-15T11:42:18.252Z,6.60
2019-03-15T11:44:48.902Z,6.80
2019-03-15T11:47:19.743Z,6.98
2019-03-15T11:49:50.395Z,7.00
2019-03-15T11:52:21.269Z,7.41
2019-03-15T11:54:51.915Z,7.47
2019-03-15T11:57:22.774Z,7.40
2019-03-15T11:59:53.733Z,7.10
2019-03-15T12:02:24.382Z,7.15
2019-03-15T12:04:55.236Z,7.04
2019-03-15T12:07:25.975Z,6.60
2019-03-15T12:09:56.753Z,6.44
2019-03-15T12:12:45.922Z,6.46
2019-03-15T12:15:18.328Z,6.53
2019-03-15T12:17:48.851Z,6.54
2019-03-15T12:20:19.600Z,6.38
2019-03-15T12:22:51.173Z,6.30
2019-03-15T12:25:21.705Z,6.51
2019-03-15T12:27:52.483Z,6.46
2019-03-15T12:30:23.333Z,6.38
2019-03-15T12:32:54.071Z,6.55
2019-03-15T12:35:24.721Z,6.56
2019-03-15T12:37:54.799Z,6.49
2019-03-15T12:40:25.315Z,6.36
2019-03-15T12:42:55.960Z,6.48
2019-03-15T12:45:26.836Z,6.52
2019-03-15T12:47:57.468Z,6.53
2019-03-15T12:50:28.237Z,6.41
2019-03-15T12:52:58.909Z,6.62
2019-03-15T12:55:29.731Z,6.65
2019-03-15T12:58:00.389Z,6.62
2019-03-15T13:00:31.154Z,6.47
2019-03-15T13:03:01.793Z,6.47
2019-03-15T13:05:32.642Z,6.44
2019-03-15T13:08:03.516Z,6.30
2019-03-15T13:10:34.268Z,6.14
2019-03-15T13:13:04.903Z,6.12
2019-03-15T13:15:35.759Z,6.10
2019-03-15T13:18:06.530Z,6.09
2019-03-15T13:20:37.283Z,5.99
2019-03-15T13:23:08.144Z,5.94
2019-03-15T13:25:38.996Z,5.99
2019-03-15T13:28:09.855Z,6.06
2019-03-15T13:30:40.386Z,6.16
2019-03-15T13:33:20.359Z,6.08
2019-03-15T13:35:43.655Z,6.05
2019-03-15T13:38:14.284Z,5.95
2019-03-15T13:40:44.251Z,5.92
2019-03-15T13:43:14.784Z,5.81
2019-03-15T13:45:45.437Z,5.69
2019-03-15T13:48:16.293Z,5.60
2019-03-15T13:50:47.148Z,5.54
2019-03-15T13:53:17.786Z,5.49
2019-03-15T13:55:48.554Z,5.52
2019-03-15T13:58:19.409Z,5.46
2019-03-15T14:00:50.161Z,5.47
2019-03-15T14:03:20.806Z,5.41
2019-03-15T14:05:50.876Z,5.43
2019-03-15T14:08:21.385Z,5.39
2019-03-15T14:10:52.038Z,5.33
2019-03-15T14:13:22.810Z,5.30
2019-03-15T14:15:53.664Z,5.26
2019-03-15T14:18:24.298Z,5.21
2019-03-15T14:20:55.069Z,5.18
2019-03-15T14:23:26.950Z,5.20
2019-03-15T14:25:57.805Z,5.19
2019-03-15T14:28:28.644Z,5.19
2019-03-15T14:30:59.419Z,5.12
2019-03-15T14:33:30.080Z,5.10
2019-03-15T14:36:03.875Z,5.08
2019-03-15T14:38:33.611Z,5.04
2019-03-15T14:41:07.346Z,5.06
2019-03-15T14:43:36.525Z,5.08
2019-03-15T14:46:07.599Z,5.05
2019-03-15T14:48:38.374Z,5.07
2019-03-15T14:51:09.229Z,5.04
2019-03-15T14:53:39.982Z,5.05
2019-03-15T14:56:10.743Z,5.00
2019-03-15T14:58:41.390Z,4.96
2019-03-15T15:01:12.123Z,5.00
2019-03-15T15:03:42.980Z,4.93
2019-03-15T15:06:15.399Z,4.93
2019-03-15T15:08:46.021Z,4.89
2019-03-15T15:11:16.778Z,4.93
2019-03-15T15:13:47.631Z,4.91
2019-03-15T15:16:18.406Z,4.85
2019-03-15T15:18:49.038Z,4.86
2019-03-15T15:21:19.922Z,4.85
2019-03-15T15:23:58.697Z,4.87
2019-03-15T15:26:29.192Z,4.80
2019-03-15T15:29:00.047Z,4.81
2019-03-15T15:31:30.801Z,4.75
2019-03-15T15:34:01.863Z,4.75
2019-03-15T15:36:32.517Z,4.72
2019-03-15T15:39:03.374Z,4.71
2019-03-15T15:41:34.122Z,4.69
2019-03-15T15:44:07.526Z,4.68
2019-03-15T15:46:37.987Z,4.67
2019-03-15T15:49:08.736Z,4.61
2019-03-15T15:51:39.697Z,4.60
2019-03-15T15:54:10.557Z,4.54
2019-03-15T15:56:40.409Z,4.47
2019-03-15T15:59:10.713Z,4.43
2019-03-15T16:01:41.569Z,4.38
2019-03-15T16:04:12.445Z,4.34
2019-03-15T16:06:43.178Z,4.31
2019-03-15T16:09:13.729Z,4.30
2019-03-15T16:11:44.602Z,4.25
2019-03-15T16:14:15.236Z,4.23
2019-03-15T16:16:45.994Z,4.18
2019-03-15T16:19:16.661Z,4.16
2019-03-15T16:21:47.499Z,4.16
2019-03-15T16:24:19.275Z,4.14
2019-03-15T16:26:50.150Z,4.13
2019-03-15T16:29:21.005Z,4.11
2019-03-15T16:31:51.653Z,4.12
2019-03-15T16:34:22.512Z,4.10
2019-03-15T16:36:53.264Z,4.04
2019-03-15T16:39:23.900Z,4.07
2019-03-15T16:41:53.866Z,4.06
2019-03-15T16:44:24.383Z,4.06
2019-03-15T16:46:54.462Z,4.00
2019-03-15T16:49:24.968Z,3.95
2019-03-15T16:51:55.624Z,3.89
2019-03-15T16:54:25.591Z,3.91
2019-03-15T16:56:56.107Z,3.88
2019-03-15T16:59:26.185Z,3.86
2019-03-15T17:01:56.718Z,3.90
2019-03-15T17:04:27.461Z,3.90
2019-03-15T17:07:00.727Z,3.89
2019-03-15T17:09:30.718Z,3.87
2019-03-15T17:12:01.467Z,3.88
2019-03-15T17:14:32.107Z,3.88
2019-03-15T17:17:02.926Z,3.86
2019-03-15T17:19:33.717Z,3.86
2019-03-15T17:22:04.362Z,3.84
2019-03-15T17:24:35.462Z,3.80
2019-03-15T17:27:05.084Z,3.81
2019-03-15T17:29:35.625Z,3.78
2019-03-15T17:32:06.586Z,3.80
2019-03-15T17:34:37.210Z,3.79
2019-03-15T17:37:07.981Z,3.73
2019-03-15T17:39:38.736Z,3.74
2019-03-15T17:42:09.692Z,3.69
2019-03-15T17:44:40.559Z,3.67
2019-03-15T17:47:11.183Z,3.68
2019-03-15T17:49:41.936Z,3.71
2019-03-15T17:52:12.695Z,3.68
2019-03-15T17:54:43.550Z,3.66
2019-03-15T17:57:14.317Z,3.64
2019-03-15T18:00:00.416Z,3.60
2019-03-15T18:02:31.148Z,3.54
2019-03-15T18:05:01.922Z,3.49
2019-03-15T18:07:32.765Z,3.51
2019-03-15T18:10:04.842Z,3.53
2019-03-15T18:12:35.292Z,3.51
2019-03-15T18:15:08.111Z,3.54
2019-03-15T18:17:38.743Z,3.53
2019-03-15T18:20:10.510Z,3.51
2019-03-15T18:22:40.983Z,3.53
2019-03-15T18:25:12.760Z,3.46
2019-03-15T18:27:43.613Z,3.51
2019-03-15T18:30:18.053Z,3.49
2019-03-15T18:32:48.909Z,3.49
2019-03-15T18:35:32.648Z,3.54
2019-03-15T18:37:51.845Z,3.43
2019-03-15T18:40:22.699Z,3.40
2019-03-15T18:42:53.455Z,3.34
2019-03-15T18:45:24.212Z,3.35
2019-03-15T18:47:54.862Z,3.28
2019-03-15T18:50:26.535Z,3.28
2019-03-15T18:52:57.425Z,3.30
2019-03-15T18:55:28.245Z,3.26
2019-03-15T18:57:59.001Z,3.27
2019-03-15T19:00:29.659Z,3.20
2019-03-15T19:03:00.490Z,3.19
2019-03-15T19:05:31.271Z,3.15
2019-03-15T19:08:02.000Z,3.13
2019-03-15T19:10:32.754Z,3.09
2019-03-15T19:13:03.626Z,3.07
2019-03-15T19:15:34.260Z,3.17
2019-03-15T19:18:04.441Z,3.11
2019-03-15T19:20:34.862Z,3.07
2019-03-15T19:23:05.600Z,3.01
2019-03-15T19:25:38.404Z,3.03
2019-03-15T19:28:09.173Z,2.92
2019-03-15T19:30:39.927Z,2.93
2019-03-15T19:33:10.764Z,2.95
2019-03-15T19:35:41.537Z,2.85
2019-03-15T19:38:14.912Z,2.81
2019-03-15T19:40:44.359Z,2.86
2019-03-15T19:43:15.214Z,2.95
2019-03-15T19:45:45.966Z,2.83
2019-03-15T19:48:16.726Z,2.83
2019-03-15T19:50:47.387Z,2.79
2019-03-15T19:53:18.253Z,2.75
2019-03-15T19:55:48.999Z,2.76
2019-03-15T19:58:19.857Z,2.82
2019-03-15T20:00:50.592Z,2.84
2019-03-15T20:03:21.465Z,2.85
2019-03-15T20:05:52.104Z,2.84
2019-03-15T20:08:22.872Z,2.89
2019-03-15T20:10:53.827Z,2.85
2019-03-15T20:13:24.580Z,2.85
2019-03-15T20:15:55.338Z,2.98
2019-03-15T20:18:25.974Z,2.90
2019-03-15T20:20:56.844Z,2.87
2019-03-15T20:23:27.598Z,2.93
2019-03-15T20:25:59.271Z,2.91
2019-03-15T20:28:30.131Z,3.03
2019-03-15T20:31:00.890Z,2.98
2019-03-15T20:33:31.738Z,3.11
2019-03-15T20:36:02.428Z,2.89
2019-03-15T20:38:33.229Z,2.91
2019-03-15T20:41:03.986Z,2.78
2019-03-15T20:43:34.857Z,2.67
2019-03-15T20:46:05.611Z,2.73
2019-03-15T20:48:36.260Z,2.85
2019-03-15T20:51:07.120Z,2.81
2019-03-15T20:53:37.855Z,2.78
2019-03-15T20:56:08.628Z,2.63
2019-03-15T20:58:39.361Z,2.55
2019-03-15T21:01:10.116Z,2.58
2019-03-15T21:03:40.867Z,2.58
2019-03-15T21:06:11.537Z,2.57
2019-03-15T21:08:42.392Z,2.55
2019-03-15T21:11:13.260Z,2.55
2019-03-15T21:13:44.002Z,2.53
2019-03-15T21:16:18.029Z,2.53
2019-03-15T21:18:46.945Z,2.53
2019-03-15T21:21:17.579Z,2.51
2019-03-15T21:23:48.348Z,2.49
2019-03-15T21:26:20.126Z,2.48
2019-03-15T21:28:50.572Z,2.38
2019-03-15T21:31:22.143Z,2.31
2019-03-15T21:33:52.880Z,2.29
2019-03-15T21:36:23.548Z,2.31
2019-03-15T21:38:54.405Z,2.31
2019-03-15T21:41:25.168Z,2.20
2019-03-15T21:43:55.894Z,2.13
2019-03-15T21:46:26.768Z,2.13
2019-03-15T21:48:57.607Z,2.14
2019-03-15T21:51:28.381Z,2.22
2019-03-15T21:53:59.034Z,2.17
2019-03-15T21:56:29.886Z,2.13
2019-03-15T21:59:00.950Z,2.17
2019-03-15T22:01:34.447Z,2.17
2019-03-15T22:04:05.215Z,2.22
2019-03-15T22:06:35.866Z,2.19
2019-03-15T22:09:06.129Z,2.17
2019-03-15T22:11:36.234Z,2.17
2019-03-15T22:14:06.414Z,2.14
2019-03-15T22:16:36.942Z,2.14
2019-03-15T22:19:07.580Z,2.08
2019-03-15T22:21:37.652Z,2.06
2019-03-15T22:24:08.159Z,2.08
2019-03-15T22:26:39.027Z,2.04
2019-03-15T22:29:09.885Z,2.06
2019-03-15T22:31:40.751Z,2.02
2019-03-15T22:34:11.192Z,2.01
2019-03-15T22:36:41.727Z,1.95
2019-03-15T22:39:12.483Z,1.95
2019-03-15T22:41:43.356Z,1.95
2019-03-15T22:44:14.111Z,1.88
2019-03-15T22:46:44.741Z,1.87
2019-03-15T22:49:15.495Z,1.90
2019-03-15T22:51:46.350Z,1.92
2019-03-15T22:54:17.121Z,1.94
2019-03-15T22:56:47.780Z,1.99
2019-03-15T22:59:18.629Z,2.03
2019-03-15T23:01:49.365Z,1.91
2019-03-15T23:04:20.138Z,1.79
2019-03-15T23:06:50.977Z,1.76
2019-03-15T23:09:21.731Z,1.73
2019-03-15T23:11:52.487Z,1.70
2019-03-15T23:14:23.162Z,1.78
2019-03-15T23:16:54.020Z,1.75
2019-03-15T23:19:24.764Z,1.70
2019-03-15T23:21:55.501Z,1.61
2019-03-15T23:24:26.048Z,1.62
2019-03-15T23:26:58.767Z,1.45
2019-03-15T23:29:29.523Z,1.41
2019-03-15T23:32:00.269Z,1.35
2019-03-15T23:34:31.125Z,1.37
2019-03-15T23:37:01.984Z,1.24
2019-03-15T23:39:32.644Z,1.18
2019-03-15T23:42:03.507Z,1.13
2019-03-15T23:44:34.257Z,1.03
2019-03-15T23:47:04.979Z,0.98
2019-03-15T23:49:35.853Z,0.88
2019-03-15T23:52:06.605Z,0.80
2019-03-15T23:54:37.364Z,0.75
2019-03-15T23:57:08.116Z,0.70
2019-03-15T23:59:38.857Z,0.62
